Terminal Aerodrome Forecast
Issued by NWS

Home | Current Version | Previous Version | Graphics & Text | Print | Product List | Glossary On
Versions: 1 2 3 4 5 6 7 8 9 10 11 12 13 14 15
548
FTUS43 KMPX 281459 AAB
TAFAXN
TAF AMD
KAXN 281459Z 2815/2912 34009KT P6SM SCT020 SCT250
     FM282200 01010KT P6SM OVC200=

USA.gov is the U.S. government's official web portal to all federal, state and local government web resources and services.